createdAt,value
2022-08-28T00:00:25.692Z,6.40
2022-08-28T00:02:53.722Z,7.00
2022-08-28T00:05:23.341Z,7.30
2022-08-28T00:07:50.658Z,8.52
2022-08-28T00:10:22.603Z,8.43
2022-08-28T00:12:51.404Z,9.98
2022-08-28T00:15:27.434Z,9.90
2022-08-28T00:17:54.409Z,9.80
2022-08-28T00:20:22.006Z,8.80
2022-08-28T00:22:49.844Z,9.02
2022-08-28T00:25:20.550Z,8.90
2022-08-28T00:27:53.081Z,8.50
2022-08-28T00:30:50.840Z,8.90
2022-08-28T00:33:27.977Z,8.65
2022-08-28T00:35:55.105Z,7.70
2022-08-28T00:38:23.127Z,8.43
2022-08-28T00:40:55.619Z,8.77
2022-08-28T00:43:31.950Z,9.48
2022-08-28T00:45:58.669Z,8.57
2022-08-28T00:48:25.456Z,7.43
2022-08-28T00:51:10.683Z,8.13
2022-08-28T00:53:37.630Z,8.70
2022-08-28T00:56:10.288Z,8.45
2022-08-28T00:58:42.592Z,8.05
2022-08-28T01:01:09.685Z,9.25
2022-08-28T01:03:37.556Z,8.63
2022-08-28T01:06:05.094Z,8.52
2022-08-28T01:08:34.079Z,8.43
2022-08-28T01:11:04.394Z,8.98
2022-08-28T01:13:32.464Z,10.13
2022-08-28T01:16:01.107Z,10.93
2022-08-28T01:18:28.757Z,10.60
2022-08-28T01:21:04.408Z,8.85
2022-08-28T01:23:51.724Z,8.70
2022-08-28T01:26:19.137Z,7.80
2022-08-28T01:28:46.105Z,8.82
2022-08-28T01:31:15.184Z,9.68
2022-08-28T01:33:43.028Z,11.02
2022-08-28T01:36:12.129Z,10.10
2022-08-28T01:38:41.095Z,9.05
2022-08-28T01:41:08.372Z,9.90
2022-08-28T01:43:35.263Z,9.70
2022-08-28T01:46:05.034Z,11.23
2022-08-28T01:48:36.226Z,10.65
2022-08-28T01:51:04.924Z,10.23
2022-08-28T01:53:33.138Z,12.70
2022-08-28T01:56:04.652Z,10.27
2022-08-28T01:58:36.067Z,10.48
2022-08-28T02:01:09.851Z,9.50
2022-08-28T02:03:36.617Z,10.70
2022-08-28T02:06:03.409Z,12.25
2022-08-28T02:08:30.156Z,12.18
2022-08-28T02:10:57.371Z,11.18
2022-08-28T02:13:25.740Z,12.35
2022-08-28T02:15:52.575Z,13.13
2022-08-28T02:18:19.468Z,13.05
2022-08-28T02:20:46.581Z,14.65
2022-08-28T02:23:13.785Z,11.60
2022-08-28T02:25:40.627Z,11.05
2022-08-28T02:28:07.548Z,13.40
2022-08-28T02:30:35.690Z,11.77
2022-08-28T02:33:02.557Z,11.07
2022-08-28T02:35:31.256Z,12.38
2022-08-28T02:38:00.401Z,12.38
2022-08-28T02:40:27.830Z,11.75
2022-08-28T02:42:54.633Z,13.60
2022-08-28T02:45:21.413Z,12.07
2022-08-28T02:47:51.367Z,10.82
2022-08-28T02:50:19.870Z,11.60
2022-08-28T02:52:46.854Z,11.02
2022-08-28T02:55:16.337Z,12.07
2022-08-28T02:57:43.492Z,12.02
2022-08-28T03:00:13.748Z,12.48
2022-08-28T03:02:42.087Z,13.38
2022-08-28T03:05:10.293Z,15.93
2022-08-28T03:07:37.084Z,14.90
2022-08-28T03:10:07.164Z,14.13
2022-08-28T03:12:34.833Z,14.32
2022-08-28T03:15:02.052Z,13.10
2022-08-28T03:17:28.838Z,13.25
2022-08-28T03:19:55.625Z,15.07
2022-08-28T03:22:42.422Z,15.13
2022-08-28T03:25:09.383Z,14.18
2022-08-28T03:27:36.144Z,14.95
2022-08-28T03:30:07.054Z,15.40
2022-08-28T03:32:34.176Z,14.18
2022-08-28T03:35:00.935Z,14.40
2022-08-28T03:37:27.830Z,13.93
2022-08-28T03:39:55.196Z,13.85
2022-08-28T03:42:22.097Z,14.70
2022-08-28T03:44:49.136Z,17.10
2022-08-28T03:47:16.939Z,16.90
2022-08-28T03:49:45.365Z,15.60
2022-08-28T03:52:12.620Z,16.27
2022-08-28T03:54:39.471Z,14.98
2022-08-28T03:57:07.615Z,15.65
2022-08-28T03:59:35.599Z,16.25
2022-08-28T04:02:02.395Z,17.17
2022-08-28T04:04:29.101Z,18.02
2022-08-28T04:06:55.827Z,17.20
2022-08-28T04:09:22.568Z,16.25
2022-08-28T04:11:49.225Z,17.25
2022-08-28T04:14:15.952Z,19.02
2022-08-28T04:16:43.008Z,20.10
2022-08-28T04:19:09.967Z,18.88
2022-08-28T04:21:36.846Z,19.77
2022-08-28T04:24:09.012Z,18.55
2022-08-28T04:26:36.948Z,20.58
2022-08-28T04:29:04.670Z,18.77
2022-08-28T04:31:32.847Z,18.95
2022-08-28T04:34:01.710Z,18.50
2022-08-28T04:36:29.046Z,17.88
2022-08-28T04:38:57.592Z,19.90
2022-08-28T04:41:24.309Z,17.65
2022-08-28T04:43:52.708Z,20.10
2022-08-28T04:46:19.581Z,18.80
2022-08-28T04:48:46.341Z,19.10
2022-08-28T04:51:15.070Z,19.27
2022-08-28T04:53:43.022Z,20.38
2022-08-28T04:56:12.685Z,18.77
2022-08-28T04:58:40.690Z,19.27
2022-08-28T05:01:18.780Z,19.33
2022-08-28T05:03:47.903Z,20.73
2022-08-28T05:06:16.316Z,17.73
2022-08-28T05:08:45.473Z,17.85
2022-08-28T05:11:33.448Z,21.27
2022-08-28T05:14:06.998Z,18.63
2022-08-28T05:16:40.885Z,17.98
2022-08-28T05:19:07.673Z,18.90
2022-08-28T05:21:34.421Z,20.58
2022-08-28T05:24:01.277Z,21.73
2022-08-28T05:26:29.684Z,19.98
2022-08-28T05:28:58.261Z,20.15
2022-08-28T05:31:25.866Z,19.77
2022-08-28T05:33:53.494Z,17.40
2022-08-28T05:36:22.743Z,19.33
2022-08-28T05:38:51.395Z,18.58
2022-08-28T05:41:23.951Z,18.20
2022-08-28T05:43:51.425Z,17.45
2022-08-28T05:46:18.386Z,18.70
2022-08-28T05:48:45.762Z,20.25
2022-08-28T05:51:14.591Z,18.23
2022-08-28T05:53:43.736Z,19.13
2022-08-28T05:56:13.484Z,17.08
2022-08-28T05:58:40.726Z,18.40
2022-08-28T06:01:19.801Z,20.15
2022-08-28T06:03:55.038Z,17.83
2022-08-28T06:06:24.769Z,17.50
2022-08-28T06:08:56.320Z,18.05
2022-08-28T06:11:30.505Z,17.05
2022-08-28T06:14:02.540Z,19.45
2022-08-28T06:16:31.382Z,19.60
2022-08-28T06:18:58.629Z,17.80
2022-08-28T06:21:25.372Z,18.95
2022-08-28T06:23:52.078Z,17.70
2022-08-28T06:26:19.014Z,19.13
2022-08-28T06:28:45.976Z,17.85
2022-08-28T06:31:23.277Z,19.88
2022-08-28T06:33:54.188Z,18.35
2022-08-28T06:36:21.467Z,17.52
2022-08-28T06:38:48.389Z,16.42
2022-08-28T06:41:15.770Z,18.20
2022-08-28T06:43:42.672Z,18.90
2022-08-28T06:46:09.667Z,16.63
2022-08-28T06:48:36.652Z,18.65
2022-08-28T06:51:07.292Z,17.17
2022-08-28T06:53:34.065Z,19.65
2022-08-28T06:56:16.207Z,17.08
2022-08-28T06:58:54.549Z,17.15
2022-08-28T07:01:25.569Z,17.95
2022-08-28T07:03:54.845Z,15.98
2022-08-28T07:06:23.396Z,17.75
2022-08-28T07:08:51.131Z,18.27
2022-08-28T07:11:26.366Z,17.67
2022-08-28T07:13:54.375Z,16.67
2022-08-28T07:16:24.231Z,16.95
2022-08-28T07:18:50.999Z,16.23
2022-08-28T07:21:17.860Z,17.00
2022-08-28T07:23:46.052Z,15.55
2022-08-28T07:26:16.261Z,14.45
2022-08-28T07:28:43.471Z,18.60
2022-08-28T07:31:26.133Z,18.48
2022-08-28T07:33:54.855Z,18.75
2022-08-28T07:36:29.599Z,15.13
2022-08-28T07:38:58.377Z,17.40
2022-08-28T07:41:28.787Z,14.88
2022-08-28T07:44:14.697Z,14.07
2022-08-28T07:46:41.681Z,15.95
2022-08-28T07:49:09.317Z,16.30
2022-08-28T07:51:36.489Z,17.08
2022-08-28T07:54:04.425Z,15.80
2022-08-28T07:56:31.554Z,16.17
2022-08-28T07:59:00.323Z,15.80
2022-08-28T08:01:30.650Z,15.07
2022-08-28T08:04:01.969Z,15.48
2022-08-28T08:06:33.881Z,14.05
2022-08-28T08:09:02.322Z,14.55
2022-08-28T08:11:32.570Z,14.25
2022-08-28T08:14:04.851Z,14.38
2022-08-28T08:16:38.644Z,12.18
2022-08-28T08:19:10.015Z,12.43
2022-08-28T08:21:37.673Z,11.52
2022-08-28T08:24:05.276Z,11.95
2022-08-28T08:26:33.102Z,13.10
2022-08-28T08:29:00.641Z,12.10
2022-08-28T08:31:32.660Z,12.85
2022-08-28T08:34:02.012Z,10.48
2022-08-28T08:36:31.017Z,11.40
2022-08-28T08:39:00.329Z,11.68
2022-08-28T08:41:43.582Z,11.85
2022-08-28T08:44:33.206Z,11.35
2022-08-28T08:47:14.762Z,10.65
2022-08-28T08:50:10.516Z,11.02
2022-08-28T08:52:55.887Z,10.93
2022-08-28T08:55:31.510Z,11.95
2022-08-28T08:58:11.290Z,11.95
2022-08-28T09:00:56.391Z,11.32
2022-08-28T09:03:27.716Z,9.55
2022-08-28T09:06:00.341Z,10.82
2022-08-28T09:08:50.483Z,10.75
2022-08-28T09:11:43.655Z,11.07
2022-08-28T09:14:48.062Z,11.30
2022-08-28T09:17:18.251Z,10.18
2022-08-28T09:19:45.321Z,11.70
2022-08-28T09:22:12.272Z,10.68
2022-08-28T09:24:41.345Z,12.02
2022-08-28T09:27:21.393Z,11.65
2022-08-28T09:30:14.956Z,15.30
2022-08-28T09:32:44.703Z,14.90
2022-08-28T09:35:30.684Z,15.57
2022-08-28T09:38:20.553Z,16.77
2022-08-28T09:41:08.341Z,16.98
2022-08-28T09:43:37.308Z,15.90
2022-08-28T09:46:19.710Z,14.63
2022-08-28T09:48:50.450Z,15.85
2022-08-28T09:51:23.415Z,14.25
2022-08-28T09:53:53.644Z,15.00
2022-08-28T09:56:25.692Z,13.98
2022-08-28T09:58:56.286Z,13.25
2022-08-28T10:01:44.549Z,14.00
2022-08-28T10:04:18.072Z,14.02
2022-08-28T10:06:54.939Z,14.93
2022-08-28T10:09:40.306Z,15.32
2022-08-28T10:12:42.594Z,13.80
2022-08-28T10:15:28.357Z,12.57
2022-08-28T10:18:13.970Z,13.98
2022-08-28T10:20:52.845Z,12.65
2022-08-28T10:23:39.250Z,14.20
2022-08-28T10:26:23.914Z,11.60
2022-08-28T10:29:11.821Z,12.52
2022-08-28T10:31:58.930Z,11.82
2022-08-28T10:34:46.716Z,10.80
2022-08-28T10:37:33.127Z,10.27
2022-08-28T10:40:09.099Z,11.02
2022-08-28T10:42:43.877Z,9.98
2022-08-28T10:45:22.770Z,10.15
2022-08-28T10:47:55.489Z,11.00
2022-08-28T10:50:40.569Z,10.55
2022-08-28T10:53:13.896Z,10.73
2022-08-28T10:56:04.241Z,9.35
2022-08-28T10:58:32.617Z,9.18
2022-08-28T11:01:03.174Z,9.07
2022-08-28T11:03:34.854Z,8.85
2022-08-28T11:06:31.396Z,8.43
2022-08-28T11:09:20.739Z,8.55
2022-08-28T11:11:48.902Z,7.32
2022-08-28T11:14:48.487Z,7.07
2022-08-28T11:17:25.309Z,7.05
2022-08-28T11:20:10.752Z,6.60
2022-08-28T11:22:40.468Z,5.70
2022-08-28T11:25:32.738Z,4.93
2022-08-28T11:28:20.068Z,4.85
2022-08-28T11:30:50.187Z,6.07
2022-08-28T11:33:47.810Z,5.70
2022-08-28T11:36:20.602Z,3.90
2022-08-28T11:38:57.046Z,3.50
2022-08-28T11:41:28.096Z,3.83
2022-08-28T11:44:11.085Z,3.78
2022-08-28T11:46:42.250Z,3.83
2022-08-28T11:49:26.872Z,3.00
2022-08-28T11:51:56.313Z,3.65
2022-08-28T11:54:55.518Z,3.97
2022-08-28T11:57:55.202Z,3.88
2022-08-28T12:00:50.430Z,3.45
2022-08-28T12:03:31.653Z,4.32
2022-08-28T12:06:00.419Z,3.75
2022-08-28T12:08:46.740Z,3.75
2022-08-28T12:11:39.581Z,3.92
2022-08-28T12:14:13.162Z,3.67
2022-08-28T12:16:58.678Z,3.90
2022-08-28T12:19:36.597Z,3.80
2022-08-28T12:22:20.521Z,3.78
2022-08-28T12:25:06.217Z,4.07
2022-08-28T12:27:38.630Z,3.50
2022-08-28T12:30:05.868Z,3.83
2022-08-28T12:32:40.943Z,3.80
2022-08-28T12:35:26.131Z,4.22
2022-08-28T12:37:55.965Z,3.50
2022-08-28T12:40:47.419Z,3.63
2022-08-28T12:43:21.704Z,3.72
2022-08-28T12:45:53.716Z,3.60
2022-08-28T12:48:33.138Z,4.05
2022-08-28T12:51:20.126Z,3.92
2022-08-28T12:53:50.712Z,3.67
2022-08-28T12:56:20.420Z,4.10
2022-08-28T12:58:47.714Z,3.75
2022-08-28T13:01:30.766Z,3.72
2022-08-28T13:04:18.452Z,4.32
2022-08-28T13:06:45.465Z,4.30
2022-08-28T13:09:22.322Z,4.00
2022-08-28T13:11:51.921Z,4.15
2022-08-28T13:14:44.656Z,4.18
2022-08-28T13:17:14.546Z,4.40
2022-08-28T13:19:41.696Z,4.07
2022-08-28T13:22:39.649Z,4.22
2022-08-28T13:25:08.074Z,4.30
2022-08-28T13:27:35.487Z,4.20
2022-08-28T13:30:28.261Z,5.32
2022-08-28T13:33:19.787Z,5.22
2022-08-28T13:35:46.741Z,4.70
2022-08-28T13:38:16.685Z,4.78
2022-08-28T13:40:57.963Z,4.57
2022-08-28T13:43:27.922Z,4.57
2022-08-28T13:45:54.710Z,4.28
2022-08-28T13:48:24.597Z,4.90
2022-08-28T13:50:58.605Z,4.53
2022-08-28T13:53:25.789Z,4.40
2022-08-28T13:55:53.024Z,4.55
2022-08-28T13:58:19.759Z,4.35
2022-08-28T14:00:49.708Z,4.35
2022-08-28T14:03:35.456Z,4.47
2022-08-28T14:06:11.689Z,4.53
2022-08-28T14:08:40.074Z,4.32
2022-08-28T14:11:07.493Z,4.47
2022-08-28T14:13:34.508Z,4.30
2022-08-28T14:16:05.534Z,4.10
2022-08-28T14:18:32.892Z,4.28
2022-08-28T14:20:59.602Z,4.38
2022-08-28T14:23:26.438Z,3.90
2022-08-28T14:25:53.152Z,3.58
2022-08-28T14:28:19.825Z,3.35
2022-08-28T14:30:48.995Z,3.83
2022-08-28T14:33:18.647Z,3.75
2022-08-28T14:35:46.773Z,4.00
2022-08-28T14:38:13.632Z,3.75
2022-08-28T14:40:42.871Z,3.97
2022-08-28T14:43:10.987Z,3.50
2022-08-28T14:45:49.527Z,3.58
2022-08-28T14:48:18.514Z,3.53
2022-08-28T14:50:47.798Z,3.92
2022-08-28T14:53:15.661Z,3.53
2022-08-28T14:55:48.499Z,3.20
2022-08-28T14:58:17.221Z,3.13
2022-08-28T15:00:49.686Z,3.58
2022-08-28T15:03:18.548Z,3.95
2022-08-28T15:05:46.173Z,3.35
2022-08-28T15:08:15.883Z,3.75
2022-08-28T15:10:43.581Z,3.40
2022-08-28T15:13:11.542Z,3.67
2022-08-28T15:15:39.624Z,3.70
2022-08-28T15:18:07.601Z,3.67
2022-08-28T15:20:46.335Z,3.40
2022-08-28T15:23:15.158Z,3.92
2022-08-28T15:25:42.171Z,3.75
2022-08-28T15:28:09.282Z,3.40
2022-08-28T15:30:37.456Z,3.92
2022-08-28T15:33:04.859Z,3.97
2022-08-28T15:35:34.185Z,4.13
2022-08-28T15:38:01.027Z,3.47
2022-08-28T15:40:46.212Z,3.50
2022-08-28T15:43:13.263Z,3.97
2022-08-28T15:45:41.096Z,3.40
2022-08-28T15:48:09.416Z,4.05
2022-08-28T15:50:36.227Z,4.10
2022-08-28T15:53:03.722Z,3.70
2022-08-28T15:55:34.157Z,3.83
2022-08-28T15:58:03.875Z,4.45
2022-08-28T16:00:32.124Z,4.25
2022-08-28T16:03:01.032Z,3.90
2022-08-28T16:05:39.641Z,4.50
2022-08-28T16:08:08.161Z,4.13
2022-08-28T16:10:35.221Z,4.10
2022-08-28T16:13:03.280Z,4.18
2022-08-28T16:15:30.082Z,4.40
2022-08-28T16:17:56.757Z,3.90
2022-08-28T16:20:25.103Z,4.00
2022-08-28T16:22:52.913Z,4.70
2022-08-28T16:25:19.696Z,4.35
2022-08-28T16:27:46.385Z,4.70
2022-08-28T16:30:15.725Z,3.63
2022-08-28T16:32:46.854Z,4.88
2022-08-28T16:35:15.725Z,4.30
2022-08-28T16:37:43.272Z,4.90
2022-08-28T16:40:10.946Z,4.95
2022-08-28T16:42:37.935Z,4.40
2022-08-28T16:45:06.161Z,4.80
2022-08-28T16:47:34.483Z,4.40
2022-08-28T16:50:05.864Z,4.72
2022-08-28T16:52:32.708Z,4.82
2022-08-28T16:54:59.978Z,5.57
2022-08-28T16:57:27.459Z,4.95
2022-08-28T16:59:54.537Z,4.95
2022-08-28T17:02:26.339Z,4.72
2022-08-28T17:04:55.195Z,5.10
2022-08-28T17:07:22.348Z,5.03
2022-08-28T17:09:49.154Z,5.20
2022-08-28T17:12:16.670Z,4.50
2022-08-28T17:14:43.886Z,4.90
2022-08-28T17:17:10.713Z,5.03
2022-08-28T17:19:38.356Z,4.60
2022-08-28T17:22:27.163Z,5.00
2022-08-28T17:24:54.706Z,5.20
2022-08-28T17:27:22.843Z,5.00
2022-08-28T17:29:50.626Z,5.22
2022-08-28T17:32:17.709Z,5.55
2022-08-28T17:34:44.767Z,5.32
2022-08-28T17:37:11.642Z,5.30
2022-08-28T17:39:38.421Z,5.10
2022-08-28T17:42:05.224Z,4.63
2022-08-28T17:44:31.945Z,5.07
2022-08-28T17:46:58.681Z,4.70
2022-08-28T17:49:26.880Z,5.38
2022-08-28T17:51:53.590Z,5.30
2022-08-28T17:54:24.360Z,5.45
2022-08-28T17:56:52.993Z,4.82
2022-08-28T17:59:20.817Z,5.90
2022-08-28T18:01:48.285Z,5.15
2022-08-28T18:04:23.197Z,5.43
2022-08-28T18:06:52.835Z,5.55
2022-08-28T18:09:19.629Z,5.35
2022-08-28T18:11:46.463Z,5.00
2022-08-28T18:14:13.501Z,5.13
2022-08-28T18:16:40.378Z,5.10
2022-08-28T18:19:09.580Z,5.25
2022-08-28T18:21:37.537Z,5.55
2022-08-28T18:24:04.566Z,5.57
2022-08-28T18:26:31.420Z,5.50
2022-08-28T18:28:58.475Z,5.28
2022-08-28T18:31:25.213Z,5.50
2022-08-28T18:33:52.150Z,5.70
2022-08-28T18:36:18.911Z,5.80
2022-08-28T18:38:47.076Z,5.97
2022-08-28T18:41:13.803Z,5.90
2022-08-28T18:43:41.978Z,6.03
2022-08-28T18:46:09.812Z,5.45
2022-08-28T18:48:37.793Z,5.72
2022-08-28T18:51:09.749Z,5.65
2022-08-28T18:53:37.507Z,6.30
2022-08-28T18:56:06.373Z,6.10
2022-08-28T18:58:33.873Z,6.03
2022-08-28T19:01:02.269Z,5.63
2022-08-28T19:03:29.692Z,6.05
2022-08-28T19:05:57.230Z,6.65
2022-08-28T19:08:25.232Z,5.80
2022-08-28T19:10:52.535Z,6.50
2022-08-28T19:13:19.705Z,6.32
2022-08-28T19:15:51.614Z,6.10
2022-08-28T19:18:19.274Z,5.97
2022-08-28T19:20:46.136Z,6.43
2022-08-28T19:23:17.273Z,6.57
2022-08-28T19:25:44.992Z,6.10
2022-08-28T19:28:11.661Z,5.88
2022-08-28T19:30:38.561Z,6.20
2022-08-28T19:33:05.867Z,6.90
2022-08-28T19:35:33.769Z,6.57
2022-08-28T19:38:01.089Z,6.43
2022-08-28T19:40:27.939Z,6.95
2022-08-28T19:42:54.747Z,7.05
2022-08-28T19:45:21.566Z,6.85
2022-08-28T19:47:48.449Z,6.53
2022-08-28T19:50:15.630Z,6.88
2022-08-28T19:52:43.468Z,6.20
2022-08-28T19:55:16.454Z,6.13
2022-08-28T19:57:43.176Z,6.30
2022-08-28T20:00:10.815Z,7.25
2022-08-28T20:02:37.567Z,7.03
2022-08-28T20:05:05.516Z,6.30
2022-08-28T20:07:32.337Z,6.30
2022-08-28T20:09:59.042Z,6.45
2022-08-28T20:12:26.287Z,6.72
2022-08-28T20:14:52.969Z,7.20
2022-08-28T20:17:19.749Z,6.30
2022-08-28T20:19:47.689Z,6.70
2022-08-28T20:22:15.254Z,6.63
2022-08-28T20:24:42.327Z,6.32
2022-08-28T20:27:09.084Z,6.20
2022-08-28T20:29:36.037Z,6.60
2022-08-28T20:32:03.671Z,5.70
2022-08-28T20:34:30.387Z,6.45
2022-08-28T20:36:57.067Z,6.13
2022-08-28T20:39:23.810Z,6.35
2022-08-28T20:41:50.943Z,6.30
2022-08-28T20:44:19.929Z,7.13
2022-08-28T20:46:51.192Z,6.57
2022-08-28T20:49:21.942Z,6.65
2022-08-28T20:52:00.837Z,6.78
2022-08-28T20:54:31.511Z,6.97
2022-08-28T20:57:01.897Z,6.85
2022-08-28T20:59:35.421Z,7.40
2022-08-28T21:02:06.853Z,6.95
2022-08-28T21:04:38.802Z,7.57
2022-08-28T21:07:06.053Z,7.68
2022-08-28T21:09:39.525Z,7.80
2022-08-28T21:12:19.851Z,8.15
2022-08-28T21:14:51.487Z,8.15
2022-08-28T21:17:28.975Z,7.97
2022-08-28T21:20:04.413Z,7.55
2022-08-28T21:22:31.877Z,8.13
2022-08-28T21:24:59.894Z,7.72
2022-08-28T21:27:26.985Z,7.95
2022-08-28T21:29:58.753Z,7.95
2022-08-28T21:32:26.592Z,8.23
2022-08-28T21:34:54.463Z,8.30
2022-08-28T21:37:21.700Z,7.45
2022-08-28T21:39:48.435Z,7.43
2022-08-28T21:42:15.366Z,7.28
2022-08-28T21:44:48.318Z,8.23
2022-08-28T21:47:19.883Z,7.88
2022-08-28T21:49:50.087Z,7.47
2022-08-28T21:52:18.431Z,7.78
2022-08-28T21:54:45.200Z,7.60
2022-08-28T21:57:12.058Z,7.50
2022-08-28T21:59:39.130Z,7.82
2022-08-28T22:02:06.200Z,7.88
2022-08-28T22:04:34.723Z,7.45
2022-08-28T22:07:01.628Z,8.77
2022-08-28T22:09:29.016Z,7.90
2022-08-28T22:11:55.725Z,7.60
2022-08-28T22:14:25.254Z,7.90
2022-08-28T22:16:52.095Z,8.13
2022-08-28T22:19:18.939Z,7.70
2022-08-28T22:22:04.409Z,7.75
2022-08-28T22:24:31.201Z,8.40
2022-08-28T22:26:57.944Z,7.78
2022-08-28T22:29:25.222Z,8.38
2022-08-28T22:31:52.708Z,7.68
2022-08-28T22:34:19.835Z,7.85
2022-08-28T22:36:47.003Z,9.18
2022-08-28T22:39:13.963Z,8.45
2022-08-28T22:41:41.629Z,8.90
2022-08-28T22:44:08.335Z,8.10
2022-08-28T22:46:35.894Z,8.25
2022-08-28T22:49:03.085Z,9.23
2022-08-28T22:51:30.012Z,8.20
2022-08-28T22:53:56.838Z,7.95
2022-08-28T22:56:23.888Z,8.45
2022-08-28T22:58:51.010Z,8.50
2022-08-28T23:01:20.956Z,7.82
2022-08-28T23:03:48.497Z,8.43
2022-08-28T23:06:15.473Z,7.65
2022-08-28T23:08:42.694Z,8.10
2022-08-28T23:11:10.596Z,9.25
2022-08-28T23:13:38.154Z,9.52
2022-08-28T23:16:06.120Z,9.43
2022-08-28T23:18:46.279Z,8.88
2022-08-28T23:21:22.126Z,9.32
2022-08-28T23:23:50.619Z,8.60
2022-08-28T23:26:18.154Z,9.98
2022-08-28T23:28:45.276Z,8.30
2022-08-28T23:31:12.204Z,10.07
2022-08-28T23:33:38.955Z,9.27
2022-08-28T23:36:06.241Z,9.18
2022-08-28T23:38:42.834Z,9.43
2022-08-28T23:41:10.805Z,9.80
2022-08-28T23:43:38.082Z,9.00
2022-08-28T23:46:05.182Z,8.68
2022-08-28T23:48:32.914Z,9.00
2022-08-28T23:50:59.852Z,8.65
2022-08-28T23:53:26.784Z,9.02
2022-08-28T23:55:54.172Z,9.07
2022-08-28T23:58:22.404Z,10.43
